Clima Ilopango International Airport
Currently
Currently
Currently
METAR
MSSS 221450Z 34013KT CAVOK 20/13 Q1018 A3009 MSSS 221350Z 35012KT CAVOK 18/13 Q1018 A3008 MSSS 221250Z 35011KT CAVOK 16/12 Q1018 A3006 RMK G14KT TAF MSSS 221525Z 2218/2318 35015KT 9999 FEW043 TX29/2220Z TN16/2311Z TEMPO 2221/2224 10006KT 9999 FEW043
TAF
MSSS 221525Z 2218/2318 35015KT 9999 FEW043 TX29/2220Z TN16/2311Z TEMPO 2221/2224 10006KT 9999 FEW043

Cámaras Aeroclub

Norte

Este

Sur

Oeste

AIS/AIP El Salvador

Autoridad de Aviación Civil (AAC) El Salvador

VER DOCUMENTO